Malvern, Iowa
Current Conditions -  °F | °C
As of 7:15 PM on Sunday 21 Dec 2014 (Local Time) from KRDK Reporting Station
Haze Haze  
Wind Chill: 36°   Ceiling: 700
Heat Index: 43°   Visibility: 6mi
Dew Point: 41°   Wind: 13mph
Humidity: 93%   Direction: 170°S
Pressure: 29.74"   Gusts: 21mph
Location:  41°N, 95.59°W
Report Text: KRDK 220115Z AUTO 17011G18KT 6SM BR OVC007 06/05 A2974 RMK AO2
Loading
Personal Weather Stations






























Interactive Weather Map New forecast layout! Learn more

10-Day Weather Forecast

Advertisements
Track Severe Weather on mobile